Time;durP1;ratioP1;P1;durP2;ratioP2;P2;SDS_P1;SDS_P2;PMS_P1;PMS_P2;Temp;Humidity;BMP_temperature;BMP_pressure;BME280_temperature;BME280_humidity;BME280_pressure;Samples;Min_cycle;Max_cycle;Signal;HPM_P1;HPM_P2
2021/04/14 00:01:10;;;;;;;21.30;15.43;;;;;;;9.06;100.00;101378.02;1847876;77;21186;-88
2021/04/14 00:03:39;;;;;;;22.32;15.13;;;;;;;9.01;100.00;101369.66;1847907;77;22458;-87
2021/04/14 00:06:10;;;;;;;20.10;14.63;;;;;;;8.98;100.00;101371.94;1847707;77;21143;-87
2021/04/14 00:08:38;;;;;;;17.90;13.62;;;;;;;8.96;100.00;101371.66;1847918;77;21048;-88
2021/04/14 00:11:13;;;;;;;17.60;12.80;;;;;;;8.94;100.00;101377.39;1847689;77;21210;-88
2021/04/14 00:13:45;;;;;;;18.20;13.58;;;;;;;8.89;100.00;101371.63;1844505;77;21170;-88
2021/04/14 00:16:21;;;;;;;18.27;14.00;;;;;;;8.81;100.00;101357.31;1847961;77;22332;-88
2021/04/14 00:18:50;;;;;;;20.27;15.00;;;;;;;8.76;100.00;101358.05;1847765;77;21131;-89
2021/04/14 00:21:22;;;;;;;22.15;16.12;;;;;;;8.72;100.00;101361.72;1847767;77;21582;-89
2021/04/14 00:23:53;;;;;;;23.90;17.62;;;;;;;8.69;100.00;101359.31;1847881;77;21044;-88
2021/04/14 00:26:25;;;;;;;26.33;16.93;;;;;;;8.64;100.00;101361.30;1847776;77;21187;-89
2021/04/14 00:28:55;;;;;;;24.15;15.70;;;;;;;8.62;100.00;101364.44;1847685;77;21181;-88
2021/04/14 00:31:35;;;;;;;28.12;17.55;;;;;;;8.60;100.00;101368.42;1845139;77;21195;-88
2021/04/14 00:33:54;;;;;;;;;;;;;;;8.61;100.00;101374.47;1820095;77;21131;-88
2021/04/14 00:36:22;;;;;;;24.43;16.07;;;;;;;8.58;100.00;101376.75;1830781;77;20256;-88
2021/04/14 00:38:50;;;;;;;23.27;16.02;;;;;;;8.56;100.00;101377.31;1847834;77;21103;-88
2021/04/14 00:41:18;;;;;;;21.77;14.60;;;;;;;8.54;100.00;101370.06;1847654;77;21351;-88
2021/04/14 00:43:47;;;;;;;21.48;14.95;;;;;;;8.53;100.00;101370.98;1847725;77;21143;-88
2021/04/14 00:46:15;;;;;;;28.38;17.42;;;;;;;8.50;100.00;101369.39;1847751;77;21147;-88
2021/04/14 00:48:44;;;;;;;26.05;16.35;;;;;;;8.48;100.00;101373.83;1847703;77;21202;-88
2021/04/14 00:51:13;;;;;;;21.55;15.40;;;;;;;8.45;100.00;101375.24;1847680;77;21139;-89
2021/04/14 00:53:42;;;;;;;27.32;14.98;;;;;;;8.41;100.00;101378.94;1847748;77;21363;-88
2021/04/14 00:56:10;;;;;;;22.60;14.93;;;;;;;8.40;100.00;101378.56;1847648;77;21107;-88
2021/04/14 00:58:40;;;;;;;20.35;13.30;;;;;;;8.38;100.00;101382.98;1847715;77;21523;-88
2021/04/14 01:01:08;;;;;;;18.82;13.75;;;;;;;8.36;100.00;101380.95;1847718;77;21131;-88
2021/04/14 01:03:37;;;;;;;22.20;14.95;;;;;;;8.33;100.00;101379.34;1847843;77;21170;-88
2021/04/14 01:06:10;;;;;;;20.70;15.98;;;;;;;8.31;100.00;101376.45;1847868;77;21424;-88
2021/04/14 01:08:39;;;;;;;24.43;18.00;;;;;;;8.27;100.00;101370.59;1847687;77;21099;-89
2021/04/14 01:11:11;;;;;;;25.40;17.30;;;;;;;8.25;100.00;101375.48;1847749;77;21111;-89
2021/04/14 01:13:41;;;;;;;24.15;18.20;;;;;;;8.20;100.00;101368.80;1818099;77;21503;-88
2021/04/14 01:16:10;;;;;;;24.55;17.10;;;;;;;8.19;100.00;101358.48;1847882;77;21603;-88
2021/04/14 01:18:40;;;;;;;24.05;18.15;;;;;;;8.18;100.00;101352.91;1847756;77;21228;-88
2021/04/14 01:21:24;;;;;;;27.17;17.98;;;;;;;8.18;100.00;101349.02;1847744;77;28366;-88
2021/04/14 01:23:53;;;;;;;25.43;18.35;;;;;;;8.19;100.00;101346.37;1847775;77;21048;-88
2021/04/14 01:26:21;;;;;;;27.37;19.27;;;;;;;8.21;100.00;101346.27;1828178;77;21150;-89
2021/04/14 01:28:49;;;;;;;27.05;20.15;;;;;;;8.19;100.00;101346.37;1823376;77;21199;-88
2021/04/14 01:31:32;;;;;;;40.23;25.25;;;;;;;8.14;100.00;101345.75;1837131;77;21151;-88
2021/04/14 01:33:54;;;;;;;37.05;26.27;;;;;;;8.08;100.00;101335.71;1804449;79;21187;-89
2021/04/14 01:36:22;;;;;;;37.63;25.75;;;;;;;7.98;100.00;101326.73;1824705;77;21096;-89
2021/04/14 01:38:51;;;;;;;37.33;26.82;;;;;;;7.89;100.00;101325.47;1848090;77;21567;-89
2021/04/14 01:41:19;;;;;;;35.23;25.30;;;;;;;7.81;100.00;101325.86;1848016;77;21107;-89
2021/04/14 01:43:49;;;;;;;40.85;26.52;;;;;;;7.68;100.00;101322.23;1848102;77;21068;-89
2021/04/14 01:46:19;;;;;;;34.90;24.27;;;;;;;7.58;100.00;101321.88;1847929;77;21170;-89
2021/04/14 01:48:47;;;;;;;40.75;27.93;;;;;;;7.49;100.00;101310.22;1848067;77;21171;-89
2021/04/14 01:51:16;;;;;;;41.35;26.40;;;;;;;7.42;100.00;101305.82;1848032;77;21147;-89
2021/04/14 01:53:46;;;;;;;35.65;23.45;;;;;;;7.36;100.00;101304.84;1848151;77;21595;-89
2021/04/14 01:56:16;;;;;;;36.30;24.25;;;;;;;7.32;100.00;101300.72;1848335;77;22300;-89
2021/04/14 01:58:45;;;;;;;34.77;24.03;;;;;;;7.29;100.00;101290.97;1843214;77;21686;-89
2021/04/14 02:01:13;;;;;;;29.45;22.70;;;;;;;7.24;100.00;101292.05;1814578;78;21137;-89
2021/04/14 02:03:44;;;;;;;34.05;22.73;;;;;;;7.17;100.00;101300.19;1773357;80;21675;-89
2021/04/14 02:06:16;;;;;;;35.95;23.12;;;;;;;7.09;100.00;101296.23;1773542;80;21204;-89
2021/04/14 02:08:45;;;;;;;32.40;22.62;;;;;;;7.03;100.00;101300.88;1773439;80;21356;-89
2021/04/14 02:11:15;;;;;;;30.92;21.73;;;;;;;7.00;100.00;101301.86;1775575;80;21246;-89
2021/04/14 02:13:45;;;;;;;29.70;22.93;;;;;;;6.95;100.00;101302.09;1773312;80;21151;-89
2021/04/14 02:16:20;;;;;;;31.65;21.65;;;;;;;6.89;100.00;101301.09;1776458;80;21067;-89
2021/04/14 02:18:52;;;;;;;30.17;21.60;;;;;;;6.79;100.00;101307.63;1774017;80;21488;-89
2021/04/14 02:21:22;;;;;;;27.48;20.02;;;;;;;6.68;100.00;101306.02;1776638;80;21187;-89
2021/04/14 02:23:52;;;;;;;25.00;19.10;;;;;;;6.58;100.00;101307.75;1776216;80;21587;-90
2021/04/14 02:26:22;;;;;;;24.85;18.92;;;;;;;6.51;100.00;101310.69;1776410;80;21215;-90
2021/04/14 02:28:51;;;;;;;26.25;18.23;;;;;;;6.47;100.00;101309.98;1776432;80;21265;-90
2021/04/14 02:31:31;;;;;;;33.08;22.67;;;;;;;6.42;100.00;101316.67;1776388;80;21583;-87
2021/04/14 02:34:08;;;;;;;38.53;23.35;;;;;;;6.32;100.00;101315.44;1751775;80;21431;-89
2021/04/14 02:36:36;;;;;;;37.28;26.97;;;;;;;6.16;100.00;101326.92;1776438;80;21214;-88
2021/04/14 02:39:09;;;;;;;47.43;28.50;;;;;;;5.90;100.00;101324.19;1776476;80;21594;-88
2021/04/14 02:41:38;;;;;;;38.33;27.82;;;;;;;5.65;100.00;101331.71;1774789;80;21214;-89
2021/04/14 02:44:07;;;;;;;43.35;29.85;;;;;;;5.40;100.00;101338.37;1808325;79;21164;-89
2021/04/14 02:46:35;;;;;;;36.13;27.00;;;;;;;5.19;100.00;101340.50;1808475;79;21576;-89
2021/04/14 02:49:04;;;;;;;36.65;26.02;;;;;;;5.01;100.00;101336.07;1785958;80;21230;-89
2021/04/14 02:51:34;;;;;;;36.25;25.70;;;;;;;4.78;100.00;101336.53;1808294;79;21183;-89
2021/04/14 02:54:03;;;;;;;35.88;24.52;;;;;;;4.66;100.00;101341.73;1808366;79;21177;-89
2021/04/14 02:56:32;;;;;;;34.70;24.98;;;;;;;4.52;100.00;101336.27;1808334;79;21595;-89
2021/04/14 02:59:01;;;;;;;27.58;21.52;;;;;;;4.47;100.00;101336.87;1786031;80;21606;-88
2021/04/14 03:01:30;;;;;;;26.12;19.15;;;;;;;4.46;100.00;101332.17;1806224;79;21310;-88
2021/04/14 03:03:58;;;;;;;25.43;19.77;;;;;;;4.50;100.00;101330.31;1784471;80;21111;-89
2021/04/14 03:06:27;;;;;;;29.63;19.90;;;;;;;4.56;100.00;101332.65;1781395;80;21314;-89
2021/04/14 03:08:55;;;;;;;28.60;20.70;;;;;;;4.62;100.00;101336.28;1781321;80;21203;-88
2021/04/14 03:11:23;;;;;;;27.07;18.25;;;;;;;4.67;100.00;101331.80;1770548;80;21343;-88
2021/04/14 03:13:51;;;;;;;29.87;21.30;;;;;;;4.73;100.00;101331.55;1763846;80;21208;-88
2021/04/14 03:16:19;;;;;;;27.13;20.20;;;;;;;4.77;100.00;101332.73;1749259;80;21124;-88
2021/04/14 03:18:48;;;;;;;29.70;22.00;;;;;;;4.78;100.00;101333.09;1749023;81;21223;-88
2021/04/14 03:21:16;;;;;;;30.90;22.80;;;;;;;4.81;100.00;101332.98;1749130;81;21123;-88
2021/04/14 03:23:44;;;;;;;28.95;20.57;;;;;;;4.89;100.00;101329.66;1749129;82;21549;-88
2021/04/14 03:26:12;;;;;;;30.43;21.45;;;;;;;4.89;100.00;101329.66;1748989;81;21215;-88
2021/04/14 03:28:41;;;;;;;29.57;21.45;;;;;;;4.95;100.00;101329.87;1749222;82;21171;-88
2021/04/14 03:31:10;;;;;;;27.75;19.92;;;;;;;4.95;100.00;101329.87;1749086;80;21631;-89
2021/04/14 03:33:38;;;;;;;30.48;21.50;;;;;;;4.94;100.00;101330.30;1723949;82;21535;-88
2021/04/14 03:36:07;;;;;;;29.98;21.45;;;;;;;5.01;100.00;101323.16;1749090;82;21372;-88
2021/04/14 03:38:35;;;;;;;31.50;20.75;;;;;;;5.01;100.00;101323.16;1748936;81;21247;-88
2021/04/14 03:41:04;;;;;;;25.85;19.52;;;;;;;5.01;100.00;101322.70;1749037;81;21190;-88
2021/04/14 03:43:34;;;;;;;25.23;18.90;;;;;;;5.07;100.00;101328.06;1749110;81;21569;-86
2021/04/14 03:46:02;;;;;;;26.20;18.30;;;;;;;5.13;100.00;101329.10;1749102;81;21174;-86
2021/04/14 03:48:30;;;;;;;26.20;18.62;;;;;;;5.23;100.00;101324.42;1748933;81;21632;-87
2021/04/14 03:50:59;;;;;;;25.90;18.57;;;;;;;5.35;100.00;101325.19;1748793;82;21147;-87
2021/04/14 03:53:31;;;;;;;27.45;19.50;;;;;;;5.42;100.00;101322.34;1748916;82;21147;-87
2021/04/14 03:56:13;;;;;;;24.02;17.57;;;;;;;5.45;100.00;101323.52;1749032;82;21229;-89
2021/04/14 03:58:47;;;;;;;23.98;17.00;;;;;;;5.50;100.00;101318.55;1748883;80;21166;-88
2021/04/14 04:01:23;;;;;;;22.55;16.70;;;;;;;5.59;100.00;101322.47;1749008;82;21206;-88
2021/04/14 04:03:53;;;;;;;22.87;16.75;;;;;;;5.66;100.00;101323.88;1746471;80;21205;-89
2021/04/14 04:06:22;;;;;;;27.30;18.60;;;;;;;5.78;100.00;101311.34;1760009;81;21144;-90
2021/04/14 04:08:52;;;;;;;22.95;17.85;;;;;;;5.83;100.00;101315.85;1761832;80;21156;-89
2021/04/14 04:11:23;;;;;;;28.35;18.95;;;;;;;5.86;100.00;101306.68;1752291;81;21175;-88
2021/04/14 04:13:53;;;;;;;30.60;21.12;;;;;;;5.94;100.00;101308.47;1760446;80;21610;-88
2021/04/14 04:16:22;;;;;;;27.90;20.17;;;;;;;5.96;100.00;101308.39;1773067;80;21120;-88
2021/04/14 04:18:52;;;;;;;26.97;20.08;;;;;;;5.96;100.00;101317.01;1779440;80;21144;-89
2021/04/14 04:21:22;;;;;;;29.82;18.95;;;;;;;5.96;100.00;101313.12;1779918;80;21131;-89
2021/04/14 04:23:51;;;;;;;29.77;21.27;;;;;;;5.97;100.00;101316.08;1780193;80;21167;-88
2021/04/14 04:26:21;;;;;;;26.93;18.98;;;;;;;6.00;100.00;101312.57;1766487;80;21178;-88
2021/04/14 04:28:49;;;;;;;31.95;22.07;;;;;;;6.02;100.00;101310.73;1756260;80;21204;-89
2021/04/14 04:31:18;;;;;;;29.90;21.42;;;;;;;6.10;100.00;101311.22;1754493;80;21117;-88
2021/04/14 04:33:47;;;;;;;48.13;21.73;;;;;;;6.17;100.00;101304.04;1748561;82;21126;-88
2021/04/14 04:36:16;;;;;;;33.20;21.85;;;;;;;6.46;100.00;101303.14;1754191;80;21152;-88
2021/04/14 04:38:44;;;;;;;35.90;22.70;;;;;;;6.77;100.00;101299.94;1761809;80;21359;-87
2021/04/14 04:41:12;;;;;;;31.55;22.42;;;;;;;6.87;100.00;101297.73;1755666;80;21148;-87
2021/04/14 04:47:56;;;;;;;35.38;23.55;;;;;;;6.93;100.00;101299.20;1758250;80;21568;-87
2021/04/14 04:54:49;;;;;;;34.70;23.75;;;;;;;7.08;100.00;101293.73;1756635;80;21128;-89
2021/04/14 05:01:42;;;;;;;47.27;23.67;;;;;;;7.25;100.00;101285.11;1769347;80;21580;-87
2021/04/14 05:08:35;;;;;;;42.30;24.60;;;;;;;7.71;100.00;101267.65;1762757;81;21136;-90
2021/04/14 05:15:30;;;;;;;45.63;25.55;;;;;;;8.16;100.00;101266.09;1767041;80;21187;-89
2021/04/14 05:22:24;;;;;;;38.90;25.45;;;;;;;8.46;100.00;101265.79;1764495;80;21213;-88
2021/04/14 05:28:22;;;;;;;47.08;26.25;;;;;;;8.65;100.00;101259.12;1770744;81;22370;-84
2021/04/14 05:30:54;;;;;;;44.13;25.62;;;;;;;8.81;100.00;101252.14;1746333;82;21179;-85
2021/04/14 05:50:49;;;;;;;44.45;25.45;;;;;;;9.73;100.00;101241.09;1852956;77;22825;-84
2021/04/14 05:57:17;;;;;;;38.45;24.20;;;;;;;9.81;100.00;101248.41;1846575;77;21393;-85
2021/04/14 05:59:45;;;;;;;32.30;23.32;;;;;;;9.90;100.00;101247.84;1846502;77;21017;-85
2021/04/14 06:02:21;;;;;;;33.02;24.10;;;;;;;9.94;100.00;101245.89;1846501;77;21131;-85
2021/04/14 06:12:22;;;;;;;31.15;22.30;;;;;;;10.18;100.00;101241.38;1846366;77;20999;-85
2021/04/14 06:14:51;;;;;;;27.17;22.25;;;;;;;10.30;100.00;101240.58;1846360;77;21095;-87
2021/04/14 06:17:24;;;;;;;28.87;21.02;;;;;;;10.39;100.00;101241.80;1829294;77;21828;-86
2021/04/14 06:19:53;;;;;;;25.43;20.77;;;;;;;10.47;100.00;101242.59;1825820;78;21156;-88
2021/04/14 06:22:21;;;;;;;37.30;23.50;;;;;;;10.50;100.00;101243.23;1786736;79;21143;-83
2021/04/14 06:32:53;;;;;;;23.67;18.00;;;;;;;10.54;100.00;101236.05;1814808;77;21132;-85
2021/04/14 06:47:42;;;;;;;25.35;18.62;;;;;;;10.83;100.00;101215.91;1816791;78;21035;-84
2021/04/14 06:50:46;;;;;;;23.60;16.00;;;;;;;10.97;100.00;101211.08;1794155;78;21107;-85
2021/04/14 07:11:32;;;;;;;16.10;13.32;;;;;;;11.40;100.00;101202.09;1785480;79;22786;-87
2021/04/14 07:14:01;;;;;;;20.45;13.53;;;;;;;11.40;100.00;101203.88;1773270;80;21194;-88
2021/04/14 07:16:48;;;;;;;17.32;12.05;;;;;;;11.40;100.00;101203.88;1765304;80;21404;-87
2021/04/14 07:19:59;;;;;;;16.32;13.55;;;;;;;11.37;100.00;101195.80;1762821;80;21623;-88
2021/04/14 07:22:44;;;;;;;13.62;10.63;;;;;;;11.36;100.00;101195.44;1769929;80;21742;-88
2021/04/14 07:26:09;;;;;;;15.45;11.57;;;;;;;11.41;100.00;101194.64;1835763;77;22312;-87
2021/04/14 07:29:19;;;;;;;13.03;10.85;;;;;;;11.45;100.00;101191.34;1774570;79;21199;-88
2021/04/14 07:32:28;;;;;;;12.80;10.72;;;;;;;11.54;100.00;101191.19;1815028;77;22084;-88
2021/04/14 07:35:11;;;;;;;14.87;11.10;;;;;;;11.61;100.00;101188.52;1782896;79;21222;-88
2021/04/14 07:38:21;;;;;;;16.82;12.25;;;;;;;11.71;100.00;101189.98;1778185;80;21217;-88
2021/04/14 07:41:10;;;;;;;15.55;10.80;;;;;;;11.76;100.00;101197.01;1782816;80;21151;-88
2021/04/14 07:44:08;;;;;;;14.25;10.80;;;;;;;11.80;100.00;101191.95;1778212;80;21178;-88
2021/04/14 07:46:41;;;;;;;14.18;11.53;;;;;;;11.84;100.00;101185.10;1750213;80;22255;-89
2021/04/14 07:49:11;;;;;;;15.03;11.45;;;;;;;11.81;100.00;101184.00;1782822;79;21167;-88
2021/04/14 07:51:39;;;;;;;18.12;12.10;;;;;;;11.80;100.00;101184.12;1805591;77;21155;-88
2021/04/14 07:54:15;;;;;;;18.12;13.78;;;;;;;11.79;100.00;101187.19;1838996;77;21078;-89
2021/04/14 07:56:52;;;;;;;16.17;12.20;;;;;;;11.81;100.00;101186.61;1790779;78;21086;-89
2021/04/14 07:59:35;;;;;;;17.32;10.93;;;;;;;11.81;100.00;101182.70;1788937;78;21668;-89
2021/04/14 08:02:14;;;;;;;18.55;12.95;;;;;;;11.82;100.00;101178.30;1811043;77;21188;-88
2021/04/14 08:04:46;;;;;;;14.85;10.55;;;;;;;11.81;100.00;101184.00;1718157;82;21665;-89
2021/04/14 08:07:22;;;;;;;19.42;13.20;;;;;;;11.79;100.00;101181.14;1748154;81;21161;-89
2021/04/14 08:09:56;;;;;;;20.68;12.30;;;;;;;11.80;100.00;101184.12;1716365;82;21216;-89
2021/04/14 08:12:33;;;;;;;16.00;10.15;;;;;;;11.78;100.00;101186.00;1762935;79;21292;-88
2021/04/14 08:15:14;;;;;;;16.27;10.95;;;;;;;11.73;100.00;101185.02;1738848;81;21239;-88
2021/04/14 08:17:46;;;;;;;14.00;10.40;;;;;;;11.67;100.00;101186.77;1768718;78;21766;-88
2021/04/14 08:20:30;;;;;;;;;;;;;;;11.67;100.00;101179.76;1774006;80;21193;-88
2021/04/14 08:23:25;;;;;;;14.15;9.48;;;;;;;11.72;100.00;101178.61;1748441;81;20263;-89
2021/04/14 08:25:57;;;;;;;10.65;8.45;;;;;;;11.71;100.00;101178.25;1768503;80;21610;-88
2021/04/14 08:32:57;;;;;;;11.45;9.28;;;;;;;11.64;100.00;101181.30;1736786;81;21144;-89
2021/04/14 08:44:15;;;;;;;15.08;11.63;;;;;;;11.39;100.00;101176.95;1741982;81;21172;-89
2021/04/14 08:55:23;;;;;;;20.55;16.35;;;;;;;10.97;100.00;101169.39;1749197;80;21148;-88
2021/04/14 08:57:59;;;;;;;21.42;17.37;;;;;;;10.87;100.00;101161.82;1738698;80;21533;-88
2021/04/14 09:01:02;;;;;;;22.60;16.10;;;;;;;10.79;100.00;101157.14;1752791;80;21583;-89
2021/04/14 09:03:39;;;;;;;15.83;13.45;;;;;;;10.76;100.00;101156.52;1755327;80;21179;-88
2021/04/14 09:06:12;;;;;;;17.77;12.78;;;;;;;10.72;100.00;101159.31;1744600;80;21140;-88
2021/04/14 09:15:32;;;;;;;20.23;11.40;;;;;;;10.69;100.00;101151.73;1753880;81;21598;-89
2021/04/14 09:18:06;;;;;;;12.35;9.75;;;;;;;10.63;100.00;101154.72;1753765;81;21197;-90
2021/04/14 09:20:39;;;;;;;54.35;11.93;;;;;;;10.67;100.00;101153.59;1755184;80;21129;-90
2021/04/14 09:23:17;;;;;;;33.13;10.78;;;;;;;10.69;100.00;101155.63;1756193;81;21153;-89
2021/04/14 09:26:17;;;;;;;13.32;10.30;;;;;;;10.76;100.00;101152.61;1751895;81;21114;-90
2021/04/14 09:28:49;;;;;;;13.65;10.70;;;;;;;10.81;100.00;101148.77;1744445;80;21416;-89
2021/04/14 09:31:40;;;;;;;10.63;9.08;;;;;;;10.85;100.00;101146.78;1727326;81;21211;-89
2021/04/14 09:34:38;;;;;;;15.63;10.88;;;;;;;10.83;100.00;101146.05;1715783;81;21163;-89
2021/04/14 09:37:21;;;;;;;12.75;9.43;;;;;;;10.76;100.00;101139.59;1715413;83;21127;-90
2021/04/14 09:40:00;;;;;;;13.65;9.30;;;;;;;10.71;100.00;101139.89;1730155;81;21556;-90
2021/04/14 09:49:41;;;;;;;16.27;14.65;;;;;;;10.76;100.00;101131.77;1732182;81;21120;-90
2021/04/14 09:55:59;;;;;;;16.30;9.63;;;;;;;10.80;100.00;101128.00;1724720;81;21163;-88
2021/04/14 10:58:45;;;;;;;11.63;9.23;;;;;;;11.74;100.00;101111.03;1779820;80;21105;-87
2021/04/14 11:01:43;;;;;;;22.87;12.07;;;;;;;11.83;100.00;101113.44;1775311;79;21177;-87
2021/04/14 11:08:02;;;;;;;16.60;11.95;;;;;;;12.03;100.00;101108.58;1763972;80;21198;-84
2021/04/14 11:22:10;;;;;;;8.38;7.55;;;;;;;12.09;100.00;101098.98;1782572;79;21203;-82
2021/04/14 11:25:28;;;;;;;12.85;8.08;;;;;;;12.08;100.00;101101.23;1770440;79;21655;-82
2021/04/14 11:35:52;;;;;;;18.12;12.53;;;;;;;12.20;100.00;101093.81;1733891;82;21240;-82
2021/04/14 11:39:14;;;;;;;21.37;11.40;;;;;;;12.29;100.00;101094.44;1737921;81;21178;-82
2021/04/14 11:49:37;;;;;;;12.95;10.95;;;;;;;12.50;100.00;101083.80;1678223;83;21728;-82
2021/04/14 11:52:55;;;;;;;17.45;13.30;;;;;;;12.54;100.00;101079.50;1680049;83;21301;-81
2021/04/14 11:55:36;;;;;;;17.02;12.53;;;;;;;12.62;100.00;101081.05;1671463;84;21284;-83
2021/04/14 11:58:29;;;;;;;20.48;12.70;;;;;;;12.69;100.00;101077.50;1681275;83;21225;-84
2021/04/14 12:00:59;;;;;;;15.72;12.50;;;;;;;12.74;100.00;101071.44;1674924;83;21571;-83
2021/04/14 12:03:37;;;;;;;14.60;11.80;;;;;;;12.79;100.00;101067.17;1683355;83;22134;-83
2021/04/14 12:06:07;;;;;;;16.67;12.13;;;;;;;12.84;100.00;101069.42;1650798;85;21256;-83
2021/04/14 12:08:35;;;;;;;17.27;10.38;;;;;;;12.85;100.00;101065.41;1653074;84;21110;-84
2021/04/14 12:11:19;;;;;;;14.83;10.85;;;;;;;12.86;100.00;101062.30;1672921;84;21210;-84
2021/04/14 12:13:49;;;;;;;12.73;10.85;;;;;;;12.83;100.00;101054.23;1679240;84;21225;-83
2021/04/14 12:16:18;;;;;;;11.88;9.33;;;;;;;12.79;100.00;101056.72;1681490;84;21483;-84
2021/04/14 12:18:47;;;;;;;12.30;10.28;;;;;;;12.76;100.00;101049.95;1673882;84;21584;-83
2021/04/14 12:21:15;;;;;;;16.97;10.75;;;;;;;12.75;100.00;101044.36;1678763;83;21186;-84
2021/04/14 12:23:44;;;;;;;12.75;10.23;;;;;;;12.74;100.00;101044.00;1718014;83;21226;-83
2021/04/14 12:26:14;;;;;;;16.65;10.55;;;;;;;12.74;100.00;101040.57;1715078;83;22082;-83
2021/04/14 12:28:43;;;;;;;20.68;11.38;;;;;;;12.73;100.00;101045.44;1690810;84;21334;-83
2021/04/14 12:31:12;;;;;;;19.92;12.10;;;;;;;12.72;100.00;101039.39;1715047;82;21266;-84
2021/04/14 12:33:44;;;;;;;21.73;13.00;;;;;;;12.75;100.00;101038.32;1741802;81;21518;-84
2021/04/14 12:36:13;;;;;;;17.27;12.28;;;;;;;12.76;100.00;101036.06;1734801;81;21221;-84
2021/04/14 12:38:43;;;;;;;12.53;9.47;;;;;;;12.78;100.00;101035.45;1714520;82;21153;-83
2021/04/14 12:41:13;;;;;;;13.03;10.43;;;;;;;12.81;100.00;101027.88;1745057;81;21650;-83
2021/04/14 12:43:42;;;;;;;16.57;10.65;;;;;;;12.83;100.00;101025.48;1745375;81;21592;-84
2021/04/14 12:46:10;;;;;;;23.00;10.15;;;;;;;12.86;100.00;101023.11;1747949;81;21153;-84
2021/04/14 12:48:43;;;;;;;65.85;25.82;;;;;;;12.89;100.00;101027.61;1737743;81;21133;-84
2021/04/14 12:51:44;;;;;;;25.48;14.80;;;;;;;12.88;100.00;101023.33;1746258;80;21109;-83
2021/04/14 12:54:18;;;;;;;16.02;10.78;;;;;;;12.88;100.00;101021.21;1758093;80;21229;-84
2021/04/14 12:56:55;;;;;;;13.05;9.93;;;;;;;12.94;100.00;101015.00;1721588;81;21134;-84
2021/04/14 12:59:28;;;;;;;14.93;8.88;;;;;;;12.99;100.00;101011.21;1719238;83;21646;-83
2021/04/14 13:02:21;;;;;;;13.55;9.53;;;;;;;13.01;100.00;101011.92;1742743;81;21194;-84
2021/04/14 13:05:04;;;;;;;20.23;11.33;;;;;;;13.01;100.00;101003.59;1747399;80;21153;-86
2021/04/14 13:07:39;;;;;;;63.38;27.65;;;;;;;13.01;100.00;101017.16;1745144;81;21373;-86
2021/04/14 13:10:09;;;;;;;13.68;10.88;;;;;;;12.97;100.00;101013.11;1716909;81;21787;-86
2021/04/14 13:12:39;;;;;;;39.63;17.98;;;;;;;12.93;100.00;101013.37;1720275;81;21111;-86
2021/04/14 13:15:14;;;;;;;32.33;17.12;;;;;;;12.93;100.00;101005.53;1724764;82;21260;-85
2021/04/14 13:17:46;;;;;;;34.30;18.30;;;;;;;13.01;100.00;101001.47;1749328;81;21158;-86
2021/04/14 13:20:19;;;;;;;20.85;13.00;;;;;;;13.08;100.00;101000.03;1748891;80;21161;-86
2021/04/14 13:23:13;;;;;;;40.48;21.48;;;;;;;13.10;100.00;100998.95;1754673;80;21189;-86
2021/04/14 13:26:08;;;;;;;29.77;18.65;;;;;;;13.09;100.00;101001.20;1752739;81;21314;-85
2021/04/14 13:28:57;;;;;;;27.25;15.05;;;;;;;13.09;100.00;101001.70;1721346;82;21137;-86
2021/04/14 13:31:36;;;;;;;16.17;12.28;;;;;;;13.12;100.00;100996.69;1710669;81;21141;-87
2021/04/14 13:34:17;;;;;;;17.37;10.78;;;;;;;13.14;100.00;100998.22;1725102;82;21574;-86
2021/04/14 13:37:07;;;;;;;19.85;9.60;;;;;;;13.15;100.00;100995.12;1725576;82;21108;-86
2021/04/14 13:39:45;;;;;;;22.20;9.40;;;;;;;13.16;100.00;100996.33;1723339;82;21174;-86
2021/04/14 13:43:20;;;;;;;20.50;12.30;;;;;;;13.25;100.00;100989.05;1852539;77;22798;-85
2021/04/14 13:45:54;;;;;;;10.13;8.78;;;;;;;13.21;100.00;100986.80;1815742;77;21171;-85
2021/04/14 13:48:34;;;;;;;13.83;9.25;;;;;;;13.24;100.00;100980.85;1835265;77;21361;-85
2021/04/14 13:51:11;;;;;;;19.17;10.70;;;;;;;13.26;100.00;100985.95;1837134;76;21125;-84
2021/04/14 13:58:20;;;;;;;14.33;9.50;;;;;;;13.21;100.00;100983.70;1824397;78;21193;-85
2021/04/14 14:09:40;;;;;;;11.68;8.38;;;;;;;13.15;100.00;100970.28;1824925;78;21016;-83
2021/04/14 14:12:20;;;;;;;18.40;8.70;;;;;;;13.13;100.00;100963.06;1825235;76;21174;-83
2021/04/14 14:15:00;;;;;;;10.28;8.50;;;;;;;13.11;100.00;100964.47;1835067;77;21179;-84
2021/04/14 14:17:30;;;;;;;12.28;7.80;;;;;;;13.08;100.00;100960.81;1824045;78;21167;-83
2021/04/14 14:24:23;;;;;;;10.58;7.58;;;;;;;13.14;100.00;100965.54;1829446;77;21135;-83
2021/04/14 14:26:53;;;;;;;11.97;7.95;;;;;;;13.19;100.00;100964.68;1857859;77;21539;-85
2021/04/14 14:33:59;;;;;;;8.50;7.37;;;;;;;13.10;100.00;100960.19;1791962;80;21143;-83
2021/04/14 14:40:56;;;;;;;9.83;7.90;;;;;;;13.04;100.00;100959.38;1824352;76;21161;-84
2021/04/14 14:47:35;;;;;;;12.70;7.70;;;;;;;13.04;100.00;100958.08;1824383;78;21157;-85
2021/04/14 14:58:37;;;;;;;11.15;7.37;;;;;;;13.05;100.00;100959.28;1823796;78;21728;-82
2021/04/14 15:04:31;;;;;;;13.62;7.55;;;;;;;13.08;100.00;100947.74;1849678;77;21452;-83
2021/04/14 15:11:24;;;;;;;19.92;7.67;;;;;;;13.10;100.00;100951.89;1804126;78;21253;-84
2021/04/14 15:28:55;;;;;;;15.55;7.37;;;;;;;12.63;100.00;100928.58;1823767;78;21228;-83
2021/04/14 15:35:48;;;;;;;13.20;7.70;;;;;;;12.62;100.00;100926.91;1799946;78;21586;-83
2021/04/14 15:38:47;;;;;;;14.33;7.92;;;;;;;12.57;100.00;100918.63;1857402;77;21119;-84
2021/04/14 15:45:10;;;;;;;80.67;10.13;;;;;;;12.54;100.00;100920.16;1820061;78;21583;-83
2021/04/14 15:48:06;;;;;;;12.35;8.30;;;;;;;12.58;100.00;100920.75;1841907;77;21123;-82
2021/04/14 15:51:05;;;;;;;33.70;9.43;;;;;;;12.55;100.00;100923.12;1842175;77;21512;-83
2021/04/14 15:53:35;;;;;;;26.27;8.40;;;;;;;12.48;100.00;100916.73;1811508;79;21170;-83
2021/04/14 15:56:33;;;;;;;17.25;8.18;;;;;;;12.45;100.00;100922.22;1811728;79;21056;-83
2021/04/14 15:59:12;;;;;;;27.87;9.43;;;;;;;12.40;100.00;100920.41;1802346;79;22318;-84
2021/04/14 16:02:15;;;;;;;28.35;9.60;;;;;;;12.31;100.00;100924.09;1797030;79;21090;-83
2021/04/14 16:04:39;;;;;;;19.07;8.90;;;;;;;12.36;100.00;100920.31;1769210;80;21210;-83
2021/04/14 16:07:07;;;;;;;21.75;8.85;;;;;;;12.38;100.00;100917.94;1803540;79;21111;-82
2021/04/14 16:09:37;;;;;;;18.57;8.25;;;;;;;12.37;100.00;100921.49;1803686;78;21132;-83
2021/04/14 16:12:06;;;;;;;22.42;8.70;;;;;;;12.35;100.00;100916.04;1836541;77;21354;-83
2021/04/14 16:15:02;;;;;;;20.43;8.03;;;;;;;12.34;100.00;100916.49;1818253;78;21100;-82
2021/04/14 16:21:00;;;;;;;13.90;7.90;;;;;;;12.45;100.00;100913.07;1809519;77;21159;-83
2021/04/14 16:24:04;;;;;;;16.17;9.08;;;;;;;12.45;100.00;100914.38;1795830;79;21886;-84
2021/04/14 16:26:37;;;;;;;23.18;8.83;;;;;;;12.43;100.00;100917.58;1809609;78;21445;-83
2021/04/14 16:29:07;;;;;;;18.27;10.63;;;;;;;12.42;100.00;100914.61;1812341;78;21095;-84
2021/04/14 16:35:59;;;;;;;21.35;15.03;;;;;;;12.34;100.00;100915.68;1797644;79;21183;-88
2021/04/14 16:38:29;;;;;;;179.30;24.32;;;;;;;12.28;100.00;100922.20;1804237;79;21147;-87
2021/04/14 16:40:59;;;;;;;300.93;29.77;;;;;;;12.26;100.00;100929.31;1788579;79;21627;-87
2021/04/14 16:43:28;;;;;;;274.00;29.20;;;;;;;12.25;100.00;100934.20;1802198;78;21100;-88
2021/04/14 16:45:57;;;;;;;123.50;21.77;;;;;;;12.22;100.00;100934.43;1789298;78;21151;-89
2021/04/14 16:48:56;;;;;;;46.95;15.72;;;;;;;12.20;100.00;100935.86;1803147;79;21159;-87